createdAt,value
2023-01-31T00:00:31.594Z,68.50
2023-01-31T00:02:59.533Z,68.49
2023-01-31T00:05:27.551Z,68.46
2023-01-31T00:07:56.036Z,68.45
2023-01-31T00:10:24.648Z,68.40
2023-01-31T00:12:53.458Z,68.39
2023-01-31T00:15:21.747Z,68.40
2023-01-31T00:17:49.846Z,68.41
2023-01-31T00:20:18.951Z,68.43
2023-01-31T00:22:47.110Z,68.36
2023-01-31T00:25:15.419Z,68.37
2023-01-31T00:27:43.573Z,68.52
2023-01-31T00:30:13.138Z,68.42
2023-01-31T00:32:41.117Z,68.48
2023-01-31T00:35:09.258Z,68.34
2023-01-31T00:37:37.571Z,68.44
2023-01-31T00:40:06.768Z,68.62
2023-01-31T00:42:35.535Z,68.55
2023-01-31T00:45:04.423Z,68.55
2023-01-31T00:47:32.714Z,68.62
2023-01-31T00:50:01.097Z,68.63
2023-01-31T00:52:29.940Z,68.68
2023-01-31T00:54:58.112Z,68.70
2023-01-31T00:57:26.539Z,68.66
2023-01-31T00:59:55.406Z,68.66
2023-01-31T01:02:23.623Z,68.74
2023-01-31T01:04:52.645Z,68.81
2023-01-31T01:07:20.683Z,68.70
2023-01-31T01:09:48.607Z,68.83
2023-01-31T01:12:16.776Z,68.60
2023-01-31T01:14:45.585Z,68.87
2023-01-31T01:17:13.557Z,68.81
2023-01-31T01:19:41.793Z,68.62
2023-01-31T01:22:09.738Z,68.74
2023-01-31T01:24:37.818Z,68.65
2023-01-31T01:27:06.046Z,68.89
2023-01-31T01:29:34.208Z,68.82
2023-01-31T01:32:02.920Z,68.72
2023-01-31T01:34:32.826Z,68.70
2023-01-31T01:37:01.298Z,68.70
2023-01-31T01:39:30.529Z,68.78
2023-01-31T01:41:59.258Z,68.80
2023-01-31T01:45:02.611Z,68.85
2023-01-31T01:47:50.942Z,68.82
2023-01-31T01:50:51.799Z,68.88
2023-01-31T01:53:23.248Z,68.84
2023-01-31T01:55:56.458Z,68.86
2023-01-31T01:58:29.042Z,68.87
2023-01-31T02:00:57.335Z,68.92
2023-01-31T02:03:26.116Z,68.91
2023-01-31T02:05:56.547Z,68.77
2023-01-31T02:08:26.574Z,68.88
2023-01-31T02:11:01.585Z,69.07
2023-01-31T02:13:30.521Z,69.00
2023-01-31T02:15:58.658Z,69.11
2023-01-31T02:18:27.824Z,69.11
2023-01-31T02:21:30.979Z,69.03
2023-01-31T02:24:17.641Z,69.09
2023-01-31T02:27:13.643Z,68.98
2023-01-31T02:30:08.595Z,69.19
2023-01-31T02:33:08.283Z,69.13
2023-01-31T02:35:51.903Z,69.25
2023-01-31T02:38:53.899Z,69.19
2023-01-31T02:41:28.629Z,69.18
2023-01-31T02:44:45.215Z,69.27
2023-01-31T02:47:52.809Z,69.27
2023-01-31T02:50:30.671Z,69.25
2023-01-31T02:53:07.186Z,69.46
2023-01-31T02:56:01.704Z,69.18
2023-01-31T02:58:33.803Z,69.22
2023-01-31T03:01:04.215Z,69.14
2023-01-31T03:03:34.804Z,69.32
2023-01-31T03:06:24.785Z,69.50
2023-01-31T03:09:22.260Z,69.35
2023-01-31T03:12:05.886Z,69.41
2023-01-31T03:14:45.880Z,69.25
2023-01-31T03:17:58.931Z,69.25
2023-01-31T03:20:38.256Z,69.38
2023-01-31T03:23:12.014Z,69.30
2023-01-31T03:25:40.659Z,69.37
2023-01-31T03:28:11.756Z,69.53
2023-01-31T03:30:43.578Z,69.54
2023-01-31T03:33:17.416Z,69.41
2023-01-31T03:35:49.023Z,69.49
2023-01-31T03:38:28.080Z,69.37
2023-01-31T03:41:04.734Z,69.52
2023-01-31T03:43:54.683Z,69.50
2023-01-31T03:46:29.998Z,69.49
2023-01-31T03:48:58.259Z,69.39
2023-01-31T03:51:28.893Z,69.50
2023-01-31T03:53:59.812Z,69.57
2023-01-31T03:56:34.066Z,69.50
2023-01-31T03:59:05.086Z,69.51
2023-01-31T04:01:34.973Z,69.63
2023-01-31T04:04:07.671Z,69.65
2023-01-31T04:06:36.033Z,69.56
2023-01-31T04:09:05.184Z,69.57
2023-01-31T04:11:37.636Z,69.66
2023-01-31T04:14:05.719Z,69.57
2023-01-31T04:16:34.456Z,69.55
2023-01-31T04:19:02.793Z,69.52
2023-01-31T04:21:30.837Z,69.40
2023-01-31T04:23:58.776Z,69.25
2023-01-31T04:26:27.711Z,69.17
2023-01-31T04:28:55.668Z,69.19
2023-01-31T04:31:23.644Z,69.14
2023-01-31T04:33:51.797Z,69.02
2023-01-31T04:36:20.043Z,68.90
2023-01-31T04:38:47.985Z,68.88
2023-01-31T04:41:16.114Z,68.92
2023-01-31T04:43:44.132Z,68.75
2023-01-31T04:46:12.211Z,68.94
2023-01-31T04:48:41.552Z,68.87
2023-01-31T04:51:09.767Z,68.95
2023-01-31T04:53:38.328Z,68.95
2023-01-31T04:56:06.983Z,69.00
2023-01-31T04:58:35.616Z,69.05
2023-01-31T05:01:03.585Z,69.21
2023-01-31T05:03:31.872Z,69.36
2023-01-31T05:06:00.269Z,69.25
2023-01-31T05:08:29.585Z,69.31
2023-01-31T05:11:04.179Z,69.44
2023-01-31T05:13:33.338Z,69.43
2023-01-31T05:16:01.343Z,69.70
2023-01-31T05:18:29.866Z,69.58
2023-01-31T05:21:00.284Z,69.82
2023-01-31T05:23:28.206Z,69.82
2023-01-31T05:25:57.338Z,69.76
2023-01-31T05:28:26.411Z,70.03
2023-01-31T05:30:54.714Z,70.00
2023-01-31T05:33:23.446Z,70.04
2023-01-31T05:35:51.751Z,70.08
2023-01-31T05:38:19.891Z,70.17
2023-01-31T05:40:50.061Z,70.27
2023-01-31T05:43:18.215Z,70.29
2023-01-31T05:45:48.441Z,70.33
2023-01-31T05:48:17.161Z,70.30
2023-01-31T05:50:46.187Z,70.49
2023-01-31T05:53:14.153Z,70.26
2023-01-31T05:55:42.158Z,70.31
2023-01-31T05:58:10.173Z,70.34
2023-01-31T06:00:38.499Z,70.38
2023-01-31T06:03:06.668Z,70.44
2023-01-31T08:14:27.670Z,70.74
2023-01-31T08:16:55.313Z,70.70
2023-01-31T08:19:23.816Z,70.70
2023-01-31T08:21:50.606Z,70.74
2023-01-31T08:24:17.328Z,70.76
2023-01-31T08:26:44.467Z,70.57
2023-01-31T08:29:11.487Z,70.65
2023-01-31T08:31:39.909Z,70.66
2023-01-31T08:34:06.611Z,70.65
2023-01-31T08:36:35.243Z,70.37
2023-01-31T08:39:02.169Z,70.40
2023-01-31T08:41:29.542Z,70.05
2023-01-31T08:43:58.824Z,70.13
2023-01-31T08:46:35.949Z,69.99
2023-01-31T08:49:04.388Z,70.09
2023-01-31T08:51:31.657Z,69.95
2023-01-31T08:53:58.281Z,69.82
2023-01-31T08:56:25.618Z,69.71
2023-01-31T08:58:52.936Z,69.78
2023-01-31T09:01:20.052Z,69.91
2023-01-31T09:03:46.980Z,69.78
2023-01-31T09:06:15.455Z,69.71
2023-01-31T09:08:42.282Z,69.58
2023-01-31T09:11:09.247Z,69.59
2023-01-31T09:13:37.035Z,69.36
2023-01-31T09:16:05.485Z,69.44
2023-01-31T09:18:33.860Z,69.41
2023-01-31T09:21:08.024Z,69.40
2023-01-31T09:23:35.243Z,69.46
2023-01-31T09:26:02.615Z,69.51
2023-01-31T09:28:29.954Z,69.31
2023-01-31T09:31:03.342Z,69.27
2023-01-31T09:33:32.286Z,69.29
2023-01-31T09:36:01.238Z,69.15
2023-01-31T09:38:28.666Z,69.14
2023-01-31T09:40:55.890Z,68.97
2023-01-31T09:43:26.220Z,69.00
2023-01-31T09:45:54.314Z,68.85
2023-01-31T09:48:23.629Z,68.93
2023-01-31T09:50:53.560Z,69.00
2023-01-31T09:53:23.396Z,68.89
2023-01-31T09:56:00.130Z,68.80
2023-01-31T09:58:45.965Z,68.77
2023-01-31T10:01:15.616Z,68.66
2023-01-31T10:04:04.466Z,68.88
2023-01-31T10:06:38.613Z,68.75
2023-01-31T10:09:10.117Z,68.57
2023-01-31T10:11:41.093Z,68.54
2023-01-31T10:14:10.825Z,68.32
2023-01-31T10:16:41.197Z,68.19
2023-01-31T10:19:16.592Z,68.07
2023-01-31T10:21:45.607Z,67.94
2023-01-31T10:24:37.422Z,67.94
2023-01-31T10:27:07.379Z,67.92
2023-01-31T10:29:45.160Z,67.81
2023-01-31T10:32:20.270Z,67.85
2023-01-31T10:34:51.727Z,67.73
2023-01-31T10:37:42.671Z,67.74
2023-01-31T10:40:19.098Z,67.69
2023-01-31T10:42:49.480Z,67.83
2023-01-31T10:45:23.359Z,67.68
2023-01-31T10:47:51.828Z,67.31
2023-01-31T10:50:33.677Z,67.33
2023-01-31T10:53:29.778Z,67.10
2023-01-31T11:03:32.940Z,66.78
2023-01-31T11:06:01.509Z,66.69
2023-01-31T11:08:33.132Z,66.66
2023-01-31T11:11:09.317Z,66.64
2023-01-31T11:13:39.117Z,66.88
2023-01-31T11:16:11.456Z,67.09
2023-01-31T11:18:47.974Z,67.04
2023-01-31T11:21:20.788Z,67.22
2023-01-31T11:23:48.813Z,67.29
2023-01-31T11:26:29.051Z,67.31
2023-01-31T11:28:57.265Z,67.38
2023-01-31T11:31:33.940Z,67.53
2023-01-31T11:34:04.244Z,67.48
2023-01-31T11:36:34.212Z,67.53
2023-01-31T11:39:05.826Z,67.78
2023-01-31T11:41:37.538Z,67.46
2023-01-31T11:44:16.738Z,67.62
2023-01-31T11:46:44.703Z,67.37
2023-01-31T11:49:20.304Z,67.51
2023-01-31T11:51:48.797Z,67.56
2023-01-31T11:54:21.842Z,67.40
2023-01-31T11:56:50.029Z,67.69
2023-01-31T11:59:20.863Z,67.39
2023-01-31T12:01:54.023Z,67.61
2023-01-31T12:04:26.449Z,67.62
2023-01-31T14:13:35.694Z,72.88
2023-01-31T14:16:04.239Z,72.81
2023-01-31T14:18:42.149Z,72.98
2023-01-31T14:21:35.038Z,73.13
2023-01-31T14:24:03.538Z,73.22
2023-01-31T14:26:42.327Z,73.28
2023-01-31T14:29:25.265Z,73.37
2023-01-31T14:31:53.213Z,73.44
2023-01-31T14:34:26.115Z,73.52
2023-01-31T14:37:00.490Z,73.69
2023-01-31T14:39:52.477Z,73.94
2023-01-31T14:42:27.928Z,73.91
2023-01-31T14:44:58.791Z,74.05
2023-01-31T14:47:28.969Z,74.23
2023-01-31T14:50:01.502Z,74.20
2023-01-31T14:52:53.454Z,74.19
2023-01-31T14:55:35.443Z,74.48
2023-01-31T14:58:02.135Z,74.67
2023-01-31T15:00:37.224Z,74.63
2023-01-31T15:03:03.965Z,74.64
2023-01-31T15:05:36.981Z,74.79
2023-01-31T15:08:26.743Z,74.76
2023-01-31T15:11:13.495Z,74.95
2023-01-31T15:13:54.270Z,75.04
2023-01-31T15:16:35.001Z,75.05
2023-01-31T15:19:14.352Z,75.07
2023-01-31T15:22:10.612Z,75.31
2023-01-31T15:24:40.404Z,75.46
2023-01-31T15:27:12.923Z,75.57
2023-01-31T15:29:58.226Z,75.84
2023-01-31T15:32:34.935Z,75.85
2023-01-31T15:35:11.382Z,76.04
2023-01-31T15:37:38.059Z,76.11
2023-01-31T15:40:18.196Z,76.16
2023-01-31T15:42:44.896Z,76.17
2023-01-31T15:45:13.015Z,76.32
2023-01-31T15:47:39.619Z,76.41
2023-01-31T15:50:18.256Z,76.55
2023-01-31T15:52:45.115Z,76.55
2023-01-31T15:55:13.487Z,76.71
2023-01-31T15:57:56.504Z,76.79
2023-01-31T16:00:29.456Z,76.80
2023-01-31T16:03:02.482Z,76.95
2023-01-31T16:05:38.918Z,77.09
2023-01-31T16:08:32.269Z,77.32
2023-01-31T16:11:06.360Z,77.44
2023-01-31T16:13:39.534Z,77.51
2023-01-31T16:16:09.800Z,77.63
2023-01-31T16:18:37.255Z,77.56
2023-01-31T16:21:38.827Z,77.74
2023-01-31T16:24:13.258Z,77.67
2023-01-31T16:26:55.358Z,78.00
2023-01-31T16:29:23.972Z,77.82
2023-01-31T16:31:52.594Z,78.10
2023-01-31T16:34:29.975Z,78.19
2023-01-31T16:37:03.115Z,78.30
2023-01-31T16:39:35.108Z,78.32
2023-01-31T16:42:07.156Z,78.40
2023-01-31T16:44:35.980Z,78.40
2023-01-31T16:47:04.143Z,78.65
2023-01-31T16:49:35.463Z,78.80
2023-01-31T16:52:17.014Z,78.72
2023-01-31T16:54:48.635Z,78.78
2023-01-31T16:57:37.577Z,79.02
2023-01-31T17:00:07.463Z,79.11
2023-01-31T17:02:39.254Z,79.14
2023-01-31T17:05:16.235Z,79.33
2023-01-31T17:07:43.427Z,79.44
2023-01-31T17:10:13.554Z,79.82
2023-01-31T17:12:40.516Z,79.93
2023-01-31T17:15:15.694Z,79.81
2023-01-31T17:17:43.378Z,80.12
2023-01-31T17:20:13.718Z,80.31
2023-01-31T17:22:42.242Z,80.26
2023-01-31T17:25:21.933Z,80.50
2023-01-31T17:27:49.228Z,80.58
2023-01-31T17:30:18.536Z,80.66
2023-01-31T17:32:45.672Z,80.89
2023-01-31T17:35:20.233Z,80.93
2023-01-31T17:37:47.389Z,81.16
2023-01-31T17:40:14.165Z,81.43
2023-01-31T17:42:41.697Z,81.31
2023-01-31T17:45:13.588Z,81.67
2023-01-31T17:47:40.676Z,81.46
2023-01-31T17:50:09.399Z,81.80
2023-01-31T17:52:37.020Z,81.76
2023-01-31T17:55:04.235Z,82.07
2023-01-31T17:57:35.005Z,81.98
2023-01-31T18:00:01.964Z,82.17
2023-01-31T18:02:33.565Z,82.21
2023-01-31T18:05:00.194Z,82.57
2023-01-31T18:07:26.785Z,82.67
2023-01-31T18:09:54.077Z,82.65
2023-01-31T18:12:20.665Z,82.82
2023-01-31T18:14:47.258Z,82.88
2023-01-31T18:17:14.460Z,82.84
2023-01-31T18:19:41.208Z,83.14
2023-01-31T18:22:07.843Z,83.30
2023-01-31T18:24:34.649Z,83.07
2023-01-31T18:27:01.580Z,83.38
2023-01-31T18:29:29.111Z,83.38
2023-01-31T18:31:57.313Z,83.20
2023-01-31T18:34:24.799Z,83.36
2023-01-31T18:36:52.109Z,83.56
2023-01-31T18:39:19.122Z,83.67
2023-01-31T18:41:45.738Z,83.85
2023-01-31T18:44:12.423Z,83.74
2023-01-31T18:46:39.089Z,83.89
2023-01-31T18:49:05.968Z,83.87
2023-01-31T18:51:33.121Z,83.76
2023-01-31T18:54:00.187Z,83.95
2023-01-31T18:56:26.939Z,84.05
2023-01-31T18:58:53.842Z,84.19
2023-01-31T19:01:22.409Z,84.13
2023-01-31T19:03:52.463Z,84.27
2023-01-31T19:06:20.787Z,84.31
2023-01-31T19:08:48.557Z,84.34
2023-01-31T19:11:16.100Z,84.38
2023-01-31T19:13:43.929Z,84.30
2023-01-31T19:16:12.894Z,84.50
2023-01-31T19:18:39.815Z,84.53
2023-01-31T19:21:17.021Z,84.72
2023-01-31T19:23:44.152Z,84.62
2023-01-31T19:26:11.609Z,84.61
2023-01-31T19:28:39.003Z,84.51
2023-01-31T19:31:06.907Z,84.63
2023-01-31T19:33:35.770Z,84.62
2023-01-31T19:36:16.611Z,84.65
2023-01-31T19:38:44.296Z,84.78
2023-01-31T19:41:16.948Z,84.66
2023-01-31T19:43:47.605Z,84.69
2023-01-31T19:46:14.239Z,84.82
2023-01-31T19:48:41.225Z,84.86
2023-01-31T19:51:15.591Z,84.89
2023-01-31T19:53:42.817Z,84.96
2023-01-31T19:56:09.485Z,85.13
2023-01-31T19:58:36.785Z,84.90
2023-01-31T20:01:05.749Z,85.10
2023-01-31T20:03:32.833Z,84.99
2023-01-31T20:06:10.064Z,84.88
2023-01-31T20:08:37.919Z,84.84
2023-01-31T20:11:07.597Z,85.15
2023-01-31T20:13:35.570Z,85.17
2023-01-31T20:16:07.459Z,85.20
2023-01-31T20:18:37.460Z,85.02
2023-01-31T20:21:05.453Z,85.09
2023-01-31T20:23:32.440Z,85.26
2023-01-31T20:25:59.757Z,85.09
2023-01-31T20:28:26.652Z,85.26
2023-01-31T20:30:53.611Z,85.28
2023-01-31T20:33:20.573Z,85.36
2023-01-31T20:35:47.254Z,85.31
2023-01-31T20:38:16.590Z,85.40
2023-01-31T20:40:51.579Z,85.33
2023-01-31T20:43:18.660Z,85.55
2023-01-31T20:45:46.100Z,85.41
2023-01-31T20:48:12.964Z,85.48
2023-01-31T20:50:39.671Z,85.53
2023-01-31T20:53:14.729Z,85.40
2023-01-31T20:55:41.337Z,85.39
2023-01-31T20:58:10.081Z,85.66
2023-01-31T21:00:36.965Z,85.69
2023-01-31T21:03:03.738Z,85.78
2023-01-31T21:05:30.834Z,85.68
2023-01-31T21:07:58.118Z,85.66
2023-01-31T21:10:28.071Z,85.55
2023-01-31T21:12:55.050Z,85.76
2023-01-31T21:15:21.927Z,85.80
2023-01-31T21:17:48.603Z,85.97
2023-01-31T21:20:15.294Z,85.89
2023-01-31T21:22:42.390Z,86.03
2023-01-31T21:25:09.022Z,85.98
2023-01-31T21:27:36.125Z,86.08
2023-01-31T21:30:03.489Z,86.17
2023-01-31T21:32:30.327Z,86.15
2023-01-31T21:34:56.984Z,86.20
2023-01-31T21:37:24.075Z,86.21
2023-01-31T21:39:50.770Z,86.10
2023-01-31T21:42:19.038Z,86.19
2023-01-31T21:44:46.862Z,86.19
2023-01-31T21:47:14.236Z,86.12
2023-01-31T21:49:40.854Z,86.11
2023-01-31T21:52:08.131Z,86.21
2023-01-31T21:54:34.860Z,86.08
2023-01-31T21:57:01.458Z,86.07
2023-01-31T21:59:28.340Z,86.23
2023-01-31T22:01:55.750Z,86.08
2023-01-31T22:04:22.732Z,86.14
2023-01-31T22:06:50.463Z,86.23
2023-01-31T22:09:17.533Z,86.33
2023-01-31T22:11:46.841Z,86.35
2023-01-31T22:14:14.918Z,86.21
2023-01-31T22:16:41.599Z,86.32
2023-01-31T22:19:10.044Z,86.33
2023-01-31T22:21:36.908Z,86.40
2023-01-31T22:24:05.573Z,86.28
2023-01-31T22:26:36.407Z,86.27
2023-01-31T22:29:04.875Z,86.39
2023-01-31T22:31:32.545Z,86.50
2023-01-31T22:33:59.938Z,86.53
2023-01-31T22:36:26.781Z,86.53
2023-01-31T22:38:54.015Z,86.52
2023-01-31T22:41:20.854Z,86.45
2023-01-31T22:43:51.664Z,86.43
2023-01-31T22:46:20.919Z,86.52
2023-01-31T22:48:50.391Z,86.54
2023-01-31T22:51:22.229Z,86.63
2023-01-31T22:53:49.533Z,86.34
2023-01-31T22:56:19.195Z,86.38
2023-01-31T22:58:46.077Z,86.48
2023-01-31T23:01:13.071Z,86.35
2023-01-31T23:03:40.068Z,86.60
2023-01-31T23:06:06.953Z,86.50
2023-01-31T23:08:33.632Z,86.37
2023-01-31T23:11:11.460Z,86.25
2023-01-31T23:13:38.713Z,86.25
2023-01-31T23:16:08.902Z,86.15
2023-01-31T23:18:35.592Z,86.26
2023-01-31T23:21:06.424Z,86.30
2023-01-31T23:23:34.175Z,86.24
2023-01-31T23:26:01.153Z,86.13
2023-01-31T23:28:30.146Z,86.27
2023-01-31T23:30:57.213Z,86.22
2023-01-31T23:33:24.208Z,86.22
2023-01-31T23:35:53.293Z,86.32
2023-01-31T23:38:19.915Z,86.19
2023-01-31T23:40:51.646Z,86.24
2023-01-31T23:43:19.224Z,86.29
2023-01-31T23:45:45.856Z,86.08
2023-01-31T23:48:12.587Z,86.19
2023-01-31T23:50:39.274Z,86.13
2023-01-31T23:53:05.938Z,86.21
2023-01-31T23:55:32.978Z,86.27
2023-01-31T23:57:59.829Z,86.26
